メインページ
METAR-TAF:

METAR-TAF

空港 :

Flin Flon, マニトバ州, カナダ

緯度: 54-41N, 経度: 101-41W, 海抜: 304m

現時点の気象観測

当レポートは11時間3分前の00:00(UTC)に作成
の風 4kt、南/南東から西/南西の間で変化する
気温 0°C
湿度 55%
気圧 1000 hPa
視程: 24.1km
高度9000ftの雲はほとんどない
高度25000ftの雲は散在している

METAR: CYFO 220000Z 18004KT 150V240 15SM FEW090 SCT250 00/M08 A2953 RMK AC1CI2 LAST OBS/NEXT 221200UTC SLP020

時間: 05:03 (11:03 UTC)


TAF: 見つかりません

4,000以上の空港の気象観測と天気予報(METAR報とTAF報)

利用可能な観測所は地図上に黄色い丸と赤い丸で示す。

丸の上にカーソルを重ねると観測所名を参照できる。

次にクリックすると気象観測と天気予報を参照できる。

マップの切り替え:黒色「×」印の緑ボタンをクリックして拡大、「-」印の緑ボタンをクリックして縮小、緑色の三角印をクリックして隣りの地図に切り替え


METAR-TAF: